Terminal Aerodrome Forecast
Issued by NWS Portland, OR

Home | Current Version | Previous Version | Text Only | Print | Product List | Glossary On
Versions: 1 2 3 4 5 6 7 8 9 10 11 12 13 14 15 16 17 18 19 20 21 22 23 24 25 26 27 28 29 30 31 32 33 34 35 36
000
FTUS46 KPQR 240821 AAA
TAFAST
TAF AMD
KAST 240821Z 2408/2506 20012G23KT 6SM -SHRA BKN015 BKN025 OVC045
     FM241200 25012KT P6SM -SHRA BKN020 BKN060
     FM242000 29010KT P6SM SCT025 BKN035=

USA.gov is the U.S. government's official web portal to all federal, state and local government web resources and services.